Terminal Aerodrome Forecast
Issued by NWS Memphis, TN

Home | Current Version | Previous Version | Text Only | Print | Product List | Glossary On
Versions: 1 2 3 4 5 6 7 8 9 10 11 12 13 14 15 16
000
FTUS44 KMEG 271128
TAFJBR
TAF
KJBR 271128Z 2712/2812 31004KT P6SM BKN100
     FM271400 01010KT P6SM VCSH SCT025 OVC040
      TEMPO 2715/2719 6SM -SHRA BKN025
     FM280100 34005KT P6SM SCT040 BKN150
     FM280600 04003KT P6SM OVC100=

USA.gov is the U.S. government's official web portal to all federal, state and local government web resources and services.